sensor_id;sensor_type;location;lat;lon;timestamp;P1;durP1;ratioP1;P2;durP2;ratioP2
15183;SDS011;7693;49.266;7.104;2023-02-01T05:55:03;16.47;;;9.10;;
15183;SDS011;7693;49.266;7.104;2023-02-01T05:57:29;11.67;;;7.57;;
15183;SDS011;7693;49.266;7.104;2023-02-01T05:59:55;14.40;;;7.60;;
15183;SDS011;7693;49.266;7.104;2023-02-01T06:02:21;15.27;;;7.63;;
15183;SDS011;7693;49.266;7.104;2023-02-01T06:04:49;16.70;;;7.83;;
15183;SDS011;7693;49.266;7.104;2023-02-01T06:07:14;10.37;;;7.13;;
15183;SDS011;7693;49.266;7.104;2023-02-01T06:09:40;14.20;;;8.07;;
15183;SDS011;7693;49.266;7.104;2023-02-01T06:12:06;12.33;;;7.73;;
15183;SDS011;7693;49.266;7.104;2023-02-01T06:14:31;15.57;;;8.67;;
15183;SDS011;7693;49.266;7.104;2023-02-01T06:16:57;11.33;;;8.20;;
15183;SDS011;7693;49.266;7.104;2023-02-01T06:19:23;16.97;;;8.00;;
15183;SDS011;7693;49.266;7.104;2023-02-01T06:21:48;17.93;;;8.77;;
15183;SDS011;7693;49.266;7.104;2023-02-01T06:24:14;19.43;;;10.03;;
15183;SDS011;7693;49.266;7.104;2023-02-01T06:26:40;14.40;;;7.93;;
15183;SDS011;7693;49.266;7.104;2023-02-01T06:29:14;15.90;;;8.17;;
15183;SDS011;7693;49.266;7.104;2023-02-01T06:31:40;15.47;;;8.20;;
15183;SDS011;7693;49.266;7.104;2023-02-01T06:34:07;14.17;;;8.43;;
15183;SDS011;7693;49.266;7.104;2023-02-01T06:36:33;17.67;;;7.97;;
15183;SDS011;7693;49.266;7.104;2023-02-01T06:38:58;13.90;;;7.93;;
15183;SDS011;7693;49.266;7.104;2023-02-01T06:41:24;17.23;;;8.83;;
15183;SDS011;7693;49.266;7.104;2023-02-01T06:43:50;19.50;;;8.07;;
15183;SDS011;7693;49.266;7.104;2023-02-01T06:46:17;18.37;;;8.37;;
15183;SDS011;7693;49.266;7.104;2023-02-01T06:48:42;18.67;;;8.63;;
15183;SDS011;7693;49.266;7.104;2023-02-01T06:51:24;24.67;;;8.07;;
15183;SDS011;7693;49.266;7.104;2023-02-01T06:53:51;14.00;;;7.20;;
15183;SDS011;7693;49.266;7.104;2023-02-01T06:56:17;13.83;;;7.30;;
15183;SDS011;7693;49.266;7.104;2023-02-01T06:58:43;15.80;;;7.27;;
15183;SDS011;7693;49.266;7.104;2023-02-01T07:01:09;13.87;;;6.37;;
15183;SDS011;7693;49.266;7.104;2023-02-01T07:03:36;16.57;;;6.93;;
15183;SDS011;7693;49.266;7.104;2023-02-01T07:06:02;21.60;;;6.90;;
15183;SDS011;7693;49.266;7.104;2023-02-01T07:08:29;14.80;;;6.67;;
15183;SDS011;7693;49.266;7.104;2023-02-01T07:10:56;17.10;;;7.03;;
15183;SDS011;7693;49.266;7.104;2023-02-01T07:13:25;17.90;;;7.07;;
15183;SDS011;7693;49.266;7.104;2023-02-01T07:15:51;19.67;;;7.17;;
15183;SDS011;7693;49.266;7.104;2023-02-01T07:18:17;18.47;;;6.73;;
15183;SDS011;7693;49.266;7.104;2023-02-01T07:20:42;16.97;;;7.13;;
15183;SDS011;7693;49.266;7.104;2023-02-01T07:23:10;17.03;;;6.10;;
15183;SDS011;7693;49.266;7.104;2023-02-01T07:25:36;21.43;;;7.20;;
15183;SDS011;7693;49.266;7.104;2023-02-01T07:28:02;15.97;;;6.40;;
15183;SDS011;7693;49.266;7.104;2023-02-01T07:30:27;20.17;;;6.60;;
15183;SDS011;7693;49.266;7.104;2023-02-01T07:32:53;22.57;;;6.60;;
15183;SDS011;7693;49.266;7.104;2023-02-01T07:35:19;22.63;;;8.47;;
15183;SDS011;7693;49.266;7.104;2023-02-01T07:37:44;17.47;;;6.33;;
15183;SDS011;7693;49.266;7.104;2023-02-01T07:40:10;17.77;;;5.93;;
15183;SDS011;7693;49.266;7.104;2023-02-01T07:42:36;11.07;;;5.60;;
15183;SDS011;7693;49.266;7.104;2023-02-01T07:45:02;20.37;;;5.43;;
15183;SDS011;7693;49.266;7.104;2023-02-01T07:47:28;22.97;;;6.67;;
15183;SDS011;7693;49.266;7.104;2023-02-01T07:49:54;17.87;;;5.63;;
15183;SDS011;7693;49.266;7.104;2023-02-01T07:52:19;14.77;;;5.57;;
15183;SDS011;7693;49.266;7.104;2023-02-01T07:54:45;19.23;;;6.20;;
15183;SDS011;7693;49.266;7.104;2023-02-01T07:57:10;20.50;;;6.17;;
15183;SDS011;7693;49.266;7.104;2023-02-01T07:59:36;18.03;;;6.00;;
15183;SDS011;7693;49.266;7.104;2023-02-01T08:02:22;17.53;;;5.73;;
15183;SDS011;7693;49.266;7.104;2023-02-01T08:04:48;17.10;;;5.53;;
15183;SDS011;7693;49.266;7.104;2023-02-01T08:07:14;20.80;;;6.63;;
15183;SDS011;7693;49.266;7.104;2023-02-01T08:09:40;19.67;;;5.93;;
15183;SDS011;7693;49.266;7.104;2023-02-01T08:12:05;21.43;;;6.13;;
15183;SDS011;7693;49.266;7.104;2023-02-01T08:14:31;18.13;;;6.03;;
15183;SDS011;7693;49.266;7.104;2023-02-01T08:16:57;19.00;;;6.40;;
15183;SDS011;7693;49.266;7.104;2023-02-01T08:19:22;15.63;;;5.67;;
15183;SDS011;7693;49.266;7.104;2023-02-01T08:21:48;15.57;;;5.63;;
15183;SDS011;7693;49.266;7.104;2023-02-01T08:24:13;15.37;;;6.23;;
15183;SDS011;7693;49.266;7.104;2023-02-01T08:26:39;21.03;;;5.77;;
15183;SDS011;7693;49.266;7.104;2023-02-01T08:29:05;13.90;;;5.27;;
15183;SDS011;7693;49.266;7.104;2023-02-01T08:31:33;16.93;;;5.57;;
15183;SDS011;7693;49.266;7.104;2023-02-01T08:34:00;16.00;;;5.10;;
15183;SDS011;7693;49.266;7.104;2023-02-01T08:36:29;19.00;;;5.60;;
15183;SDS011;7693;49.266;7.104;2023-02-01T08:38:55;16.57;;;5.10;;
15183;SDS011;7693;49.266;7.104;2023-02-01T08:41:23;11.93;;;4.50;;
15183;SDS011;7693;49.266;7.104;2023-02-01T08:43:51;17.00;;;5.20;;
15183;SDS011;7693;49.266;7.104;2023-02-01T08:46:17;16.47;;;5.27;;
15183;SDS011;7693;49.266;7.104;2023-02-01T08:48:44;16.23;;;5.03;;
15183;SDS011;7693;49.266;7.104;2023-02-01T08:51:12;21.27;;;5.80;;
15183;SDS011;7693;49.266;7.104;2023-02-01T08:53:38;22.63;;;6.13;;
15183;SDS011;7693;49.266;7.104;2023-02-01T08:56:06;14.10;;;5.13;;
15183;SDS011;7693;49.266;7.104;2023-02-01T08:58:33;17.73;;;5.43;;
15183;SDS011;7693;49.266;7.104;2023-02-01T13:44:37;18.50;;;4.90;;
15183;SDS011;7693;49.266;7.104;2023-02-01T13:47:22;12.10;;;4.40;;
15183;SDS011;7693;49.266;7.104;2023-02-01T13:49:51;13.73;;;4.47;;
15183;SDS011;7693;49.266;7.104;2023-02-01T13:52:26;18.97;;;4.70;;
15183;SDS011;7693;49.266;7.104;2023-02-01T13:57:58;15.13;;;4.40;;
15183;SDS011;7693;49.266;7.104;2023-02-01T14:00:38;11.03;;;4.10;;
15183;SDS011;7693;49.266;7.104;2023-02-01T14:08:09;13.80;;;4.17;;
15183;SDS011;7693;49.266;7.104;2023-02-01T14:10:53;13.20;;;4.30;;
15183;SDS011;7693;49.266;7.104;2023-02-01T14:13:30;11.37;;;4.00;;
15183;SDS011;7693;49.266;7.104;2023-02-01T14:21:18;15.17;;;3.93;;
15183;SDS011;7693;49.266;7.104;2023-02-01T14:29:14;14.17;;;4.33;;
15183;SDS011;7693;49.266;7.104;2023-02-01T14:37:21;13.50;;;4.50;;
15183;SDS011;7693;49.266;7.104;2023-02-01T14:58:57;12.60;;;4.10;;
15183;SDS011;7693;49.266;7.104;2023-02-01T15:00:57;18.23;;;4.20;;
15183;SDS011;7693;49.266;7.104;2023-02-01T15:06:13;6.77;;;3.87;;
15183;SDS011;7693;49.266;7.104;2023-02-01T15:08:47;16.13;;;4.53;;
15183;SDS011;7693;49.266;7.104;2023-02-01T15:11:14;14.27;;;4.77;;
15183;SDS011;7693;49.266;7.104;2023-02-01T15:13:47;11.77;;;3.93;;
15183;SDS011;7693;49.266;7.104;2023-02-01T15:16:15;17.53;;;4.47;;
15183;SDS011;7693;49.266;7.104;2023-02-01T15:18:42;12.27;;;3.87;;
15183;SDS011;7693;49.266;7.104;2023-02-01T15:21:21;10.00;;;4.30;;
15183;SDS011;7693;49.266;7.104;2023-02-01T15:23:48;12.13;;;3.77;;
15183;SDS011;7693;49.266;7.104;2023-02-01T15:26:25;14.00;;;4.50;;
15183;SDS011;7693;49.266;7.104;2023-02-01T15:28:56;12.83;;;4.47;;
15183;SDS011;7693;49.266;7.104;2023-02-01T15:31:32;11.30;;;4.37;;
15183;SDS011;7693;49.266;7.104;2023-02-01T15:34:02;14.77;;;4.40;;
15183;SDS011;7693;49.266;7.104;2023-02-01T15:36:28;14.77;;;4.67;;
15183;SDS011;7693;49.266;7.104;2023-02-01T15:42:00;18.40;;;4.73;;
15183;SDS011;7693;49.266;7.104;2023-02-01T15:44:38;10.97;;;4.17;;
15183;SDS011;7693;49.266;7.104;2023-02-01T15:47:08;12.10;;;4.33;;
15183;SDS011;7693;49.266;7.104;2023-02-01T15:49:40;15.63;;;4.33;;
15183;SDS011;7693;49.266;7.104;2023-02-01T15:52:21;12.33;;;3.80;;
15183;SDS011;7693;49.266;7.104;2023-02-01T15:54:48;13.53;;;3.20;;
15183;SDS011;7693;49.266;7.104;2023-02-01T15:57:23;8.70;;;3.80;;
15183;SDS011;7693;49.266;7.104;2023-02-01T16:00:07;11.20;;;3.97;;
15183;SDS011;7693;49.266;7.104;2023-02-01T16:02:53;10.57;;;4.00;;
15183;SDS011;7693;49.266;7.104;2023-02-01T16:05:33;16.17;;;3.80;;
15183;SDS011;7693;49.266;7.104;2023-02-01T16:08:13;11.40;;;4.07;;
15183;SDS011;7693;49.266;7.104;2023-02-01T16:10:41;9.43;;;3.60;;
15183;SDS011;7693;49.266;7.104;2023-02-01T16:13:11;8.40;;;3.40;;
15183;SDS011;7693;49.266;7.104;2023-02-01T16:15:38;12.80;;;4.47;;
15183;SDS011;7693;49.266;7.104;2023-02-01T16:18:04;11.77;;;4.20;;
15183;SDS011;7693;49.266;7.104;2023-02-01T16:20:32;12.00;;;3.70;;
15183;SDS011;7693;49.266;7.104;2023-02-01T16:23:00;9.73;;;4.30;;
15183;SDS011;7693;49.266;7.104;2023-02-01T16:25:26;14.07;;;4.60;;
15183;SDS011;7693;49.266;7.104;2023-02-01T16:27:52;13.37;;;3.50;;
15183;SDS011;7693;49.266;7.104;2023-02-01T16:30:17;11.43;;;3.77;;
15183;SDS011;7693;49.266;7.104;2023-02-01T16:32:58;8.93;;;3.50;;
15183;SDS011;7693;49.266;7.104;2023-02-01T16:35:28;15.67;;;4.03;;
15183;SDS011;7693;49.266;7.104;2023-02-01T16:38:00;10.10;;;3.73;;
15183;SDS011;7693;49.266;7.104;2023-02-01T16:40:27;11.93;;;3.77;;
15183;SDS011;7693;49.266;7.104;2023-02-01T16:42:52;14.40;;;4.27;;
15183;SDS011;7693;49.266;7.104;2023-02-01T16:45:20;10.63;;;3.60;;
15183;SDS011;7693;49.266;7.104;2023-02-01T16:47:47;9.03;;;3.63;;
15183;SDS011;7693;49.266;7.104;2023-02-01T16:50:17;12.07;;;4.43;;
15183;SDS011;7693;49.266;7.104;2023-02-01T16:52:46;14.00;;;3.73;;
15183;SDS011;7693;49.266;7.104;2023-02-01T16:55:12;9.43;;;3.83;;
15183;SDS011;7693;49.266;7.104;2023-02-01T16:57:40;14.87;;;4.50;;
15183;SDS011;7693;49.266;7.104;2023-02-01T17:00:07;18.57;;;4.57;;
15183;SDS011;7693;49.266;7.104;2023-02-01T17:02:34;13.83;;;4.20;;
15183;SDS011;7693;49.266;7.104;2023-02-01T17:04:59;14.13;;;4.93;;
15183;SDS011;7693;49.266;7.104;2023-02-01T17:07:25;18.40;;;4.60;;
15183;SDS011;7693;49.266;7.104;2023-02-01T17:09:51;9.53;;;3.60;;
15183;SDS011;7693;49.266;7.104;2023-02-01T17:12:27;10.70;;;4.20;;
15183;SDS011;7693;49.266;7.104;2023-02-01T17:14:55;12.53;;;4.53;;
15183;SDS011;7693;49.266;7.104;2023-02-01T17:17:22;17.63;;;4.87;;
15183;SDS011;7693;49.266;7.104;2023-02-01T17:19:50;15.47;;;5.17;;
15183;SDS011;7693;49.266;7.104;2023-02-01T17:22:18;13.13;;;4.43;;
15183;SDS011;7693;49.266;7.104;2023-02-01T17:24:47;16.90;;;4.47;;
15183;SDS011;7693;49.266;7.104;2023-02-01T17:27:14;11.13;;;4.40;;
15183;SDS011;7693;49.266;7.104;2023-02-01T17:29:41;15.50;;;4.20;;
15183;SDS011;7693;49.266;7.104;2023-02-01T17:32:12;11.07;;;4.70;;
15183;SDS011;7693;49.266;7.104;2023-02-01T17:34:42;16.93;;;4.37;;
15183;SDS011;7693;49.266;7.104;2023-02-01T17:37:14;16.43;;;4.63;;
15183;SDS011;7693;49.266;7.104;2023-02-01T17:40:03;18.67;;;5.03;;
15183;SDS011;7693;49.266;7.104;2023-02-01T17:42:29;12.60;;;4.20;;
15183;SDS011;7693;49.266;7.104;2023-02-01T19:07:22;11.77;;;4.27;;
15183;SDS011;7693;49.266;7.104;2023-02-01T19:09:47;14.90;;;4.57;;
15183;SDS011;7693;49.266;7.104;2023-02-01T19:12:13;18.20;;;5.80;;
15183;SDS011;7693;49.266;7.104;2023-02-01T19:14:39;16.23;;;5.83;;
15183;SDS011;7693;49.266;7.104;2023-02-01T19:17:04;15.30;;;5.20;;
15183;SDS011;7693;49.266;7.104;2023-02-01T19:19:30;13.17;;;4.50;;
15183;SDS011;7693;49.266;7.104;2023-02-01T19:21:56;17.27;;;5.43;;
15183;SDS011;7693;49.266;7.104;2023-02-01T19:24:22;11.60;;;5.10;;
15183;SDS011;7693;49.266;7.104;2023-02-01T19:26:51;13.97;;;4.40;;
15183;SDS011;7693;49.266;7.104;2023-02-01T19:29:17;11.67;;;5.00;;
15183;SDS011;7693;49.266;7.104;2023-02-01T19:31:43;19.30;;;4.87;;
15183;SDS011;7693;49.266;7.104;2023-02-01T19:34:11;15.63;;;4.87;;
15183;SDS011;7693;49.266;7.104;2023-02-01T19:36:37;16.37;;;4.83;;
15183;SDS011;7693;49.266;7.104;2023-02-01T19:39:04;13.53;;;4.87;;
15183;SDS011;7693;49.266;7.104;2023-02-01T19:41:30;14.97;;;4.73;;
15183;SDS011;7693;49.266;7.104;2023-02-01T19:43:56;11.13;;;4.60;;
15183;SDS011;7693;49.266;7.104;2023-02-01T19:46:22;12.97;;;4.57;;
15183;SDS011;7693;49.266;7.104;2023-02-01T19:48:49;20.17;;;5.03;;
15183;SDS011;7693;49.266;7.104;2023-02-01T19:51:14;14.20;;;4.87;;
15183;SDS011;7693;49.266;7.104;2023-02-01T19:53:40;15.73;;;4.93;;
15183;SDS011;7693;49.266;7.104;2023-02-01T19:56:06;16.80;;;4.43;;
15183;SDS011;7693;49.266;7.104;2023-02-01T19:58:32;9.13;;;4.07;;
15183;SDS011;7693;49.266;7.104;2023-02-01T20:01:00;13.83;;;5.43;;
15183;SDS011;7693;49.266;7.104;2023-02-01T20:03:27;15.30;;;4.60;;
15183;SDS011;7693;49.266;7.104;2023-02-01T20:05:53;11.93;;;4.63;;
15183;SDS011;7693;49.266;7.104;2023-02-01T20:08:20;12.87;;;4.53;;
15183;SDS011;7693;49.266;7.104;2023-02-01T20:10:46;12.63;;;4.13;;
15183;SDS011;7693;49.266;7.104;2023-02-01T20:13:12;12.33;;;4.20;;
15183;SDS011;7693;49.266;7.104;2023-02-01T20:15:38;12.53;;;3.97;;
15183;SDS011;7693;49.266;7.104;2023-02-01T20:18:06;13.10;;;4.73;;
15183;SDS011;7693;49.266;7.104;2023-02-01T20:20:33;15.70;;;4.77;;
15183;SDS011;7693;49.266;7.104;2023-02-01T20:22:58;11.17;;;4.00;;
15183;SDS011;7693;49.266;7.104;2023-02-01T20:25:24;14.77;;;4.93;;
15183;SDS011;7693;49.266;7.104;2023-02-01T20:27:50;11.93;;;4.60;;
15183;SDS011;7693;49.266;7.104;2023-02-01T20:30:16;20.50;;;4.47;;
15183;SDS011;7693;49.266;7.104;2023-02-01T20:32:44;19.60;;;4.83;;
15183;SDS011;7693;49.266;7.104;2023-02-01T20:35:12;19.23;;;4.90;;
15183;SDS011;7693;49.266;7.104;2023-02-01T20:37:37;16.57;;;4.60;;
15183;SDS011;7693;49.266;7.104;2023-02-01T20:40:03;16.43;;;4.57;;
15183;SDS011;7693;49.266;7.104;2023-02-01T20:42:29;15.67;;;4.20;;
15183;SDS011;7693;49.266;7.104;2023-02-01T20:44:58;14.40;;;4.97;;
15183;SDS011;7693;49.266;7.104;2023-02-01T20:47:24;18.23;;;5.03;;
15183;SDS011;7693;49.266;7.104;2023-02-01T20:49:49;14.63;;;4.30;;
15183;SDS011;7693;49.266;7.104;2023-02-01T20:52:15;14.83;;;4.83;;
15183;SDS011;7693;49.266;7.104;2023-02-01T20:54:40;18.57;;;4.83;;
15183;SDS011;7693;49.266;7.104;2023-02-01T20:57:06;15.17;;;4.97;;
15183;SDS011;7693;49.266;7.104;2023-02-01T20:59:32;19.53;;;5.00;;
15183;SDS011;7693;49.266;7.104;2023-02-01T21:01:57;13.63;;;4.33;;
15183;SDS011;7693;49.266;7.104;2023-02-01T21:04:24;12.77;;;4.30;;
15183;SDS011;7693;49.266;7.104;2023-02-01T21:06:51;17.57;;;4.70;;
15183;SDS011;7693;49.266;7.104;2023-02-01T21:09:18;19.23;;;4.20;;
15183;SDS011;7693;49.266;7.104;2023-02-01T21:11:43;27.43;;;5.67;;
15183;SDS011;7693;49.266;7.104;2023-02-01T21:14:10;15.13;;;4.20;;
15183;SDS011;7693;49.266;7.104;2023-02-01T21:16:36;11.07;;;4.47;;
15183;SDS011;7693;49.266;7.104;2023-02-01T21:19:01;18.03;;;5.00;;
15183;SDS011;7693;49.266;7.104;2023-02-01T21:21:27;12.43;;;4.00;;
15183;SDS011;7693;49.266;7.104;2023-02-01T21:23:56;14.13;;;5.03;;
15183;SDS011;7693;49.266;7.104;2023-02-01T21:26:23;11.87;;;4.10;;
15183;SDS011;7693;49.266;7.104;2023-02-01T21:28:51;11.10;;;4.10;;
15183;SDS011;7693;49.266;7.104;2023-02-01T21:31:18;15.10;;;4.37;;
15183;SDS011;7693;49.266;7.104;2023-02-01T21:33:46;17.17;;;4.80;;
15183;SDS011;7693;49.266;7.104;2023-02-01T21:36:12;18.70;;;4.70;;
15183;SDS011;7693;49.266;7.104;2023-02-01T21:38:50;12.33;;;4.87;;
15183;SDS011;7693;49.266;7.104;2023-02-01T21:41:18;17.57;;;5.10;;
15183;SDS011;7693;49.266;7.104;2023-02-01T21:44:07;12.70;;;4.43;;
15183;SDS011;7693;49.266;7.104;2023-02-01T21:46:33;16.03;;;4.63;;
15183;SDS011;7693;49.266;7.104;2023-02-01T21:48:59;17.50;;;4.63;;
15183;SDS011;7693;49.266;7.104;2023-02-01T21:51:25;12.33;;;5.37;;
15183;SDS011;7693;49.266;7.104;2023-02-01T21:53:51;20.67;;;5.50;;
15183;SDS011;7693;49.266;7.104;2023-02-01T21:56:16;13.03;;;4.37;;
15183;SDS011;7693;49.266;7.104;2023-02-01T21:58:42;16.83;;;4.60;;
15183;SDS011;7693;49.266;7.104;2023-02-01T22:01:08;14.20;;;4.73;;
15183;SDS011;7693;49.266;7.104;2023-02-01T22:03:33;18.90;;;5.37;;
15183;SDS011;7693;49.266;7.104;2023-02-01T22:05:59;16.80;;;5.53;;
15183;SDS011;7693;49.266;7.104;2023-02-01T22:08:25;13.97;;;4.87;;
15183;SDS011;7693;49.266;7.104;2023-02-01T22:10:50;20.07;;;5.40;;
15183;SDS011;7693;49.266;7.104;2023-02-01T22:13:16;15.07;;;5.37;;
15183;SDS011;7693;49.266;7.104;2023-02-01T22:15:41;22.57;;;5.93;;
15183;SDS011;7693;49.266;7.104;2023-02-01T22:18:07;14.13;;;4.73;;
15183;SDS011;7693;49.266;7.104;2023-02-01T22:20:33;14.13;;;5.40;;
15183;SDS011;7693;49.266;7.104;2023-02-01T22:22:59;19.50;;;5.63;;
15183;SDS011;7693;49.266;7.104;2023-02-01T22:25:24;16.60;;;4.97;;
15183;SDS011;7693;49.266;7.104;2023-02-01T22:27:52;12.83;;;4.47;;
15183;SDS011;7693;49.266;7.104;2023-02-01T22:30:18;17.63;;;5.70;;
15183;SDS011;7693;49.266;7.104;2023-02-01T22:32:44;18.73;;;5.93;;
15183;SDS011;7693;49.266;7.104;2023-02-01T22:35:10;13.83;;;4.63;;
15183;SDS011;7693;49.266;7.104;2023-02-01T22:37:36;14.70;;;5.43;;
15183;SDS011;7693;49.266;7.104;2023-02-01T22:40:01;14.63;;;5.80;;
15183;SDS011;7693;49.266;7.104;2023-02-01T22:42:28;18.43;;;6.57;;
15183;SDS011;7693;49.266;7.104;2023-02-01T22:44:54;13.83;;;5.03;;
15183;SDS011;7693;49.266;7.104;2023-02-01T22:47:20;18.97;;;5.93;;
15183;SDS011;7693;49.266;7.104;2023-02-01T22:49:45;16.07;;;5.27;;
15183;SDS011;7693;49.266;7.104;2023-02-01T22:52:11;16.57;;;4.20;;
15183;SDS011;7693;49.266;7.104;2023-02-01T22:54:37;18.40;;;5.87;;
15183;SDS011;7693;49.266;7.104;2023-02-01T22:57:04;15.37;;;5.20;;
15183;SDS011;7693;49.266;7.104;2023-02-01T22:59:29;17.67;;;4.83;;
15183;SDS011;7693;49.266;7.104;2023-02-01T23:01:55;15.20;;;4.60;;
15183;SDS011;7693;49.266;7.104;2023-02-01T23:04:21;18.90;;;5.47;;
15183;SDS011;7693;49.266;7.104;2023-02-01T23:06:49;17.13;;;5.87;;
15183;SDS011;7693;49.266;7.104;2023-02-01T23:09:21;17.87;;;5.20;;
